createdAt,value
2022-07-30T00:00:24.704Z,51.98
2022-07-30T00:02:52.717Z,54.13
2022-07-30T00:05:19.795Z,54.47
2022-07-30T00:07:46.549Z,53.97
2022-07-30T00:10:13.415Z,52.15
2022-07-30T00:12:40.377Z,52.46
2022-07-30T00:15:07.728Z,50.14
2022-07-30T00:17:34.546Z,51.37
2022-07-30T00:20:01.383Z,52.32
2022-07-30T00:22:30.901Z,55.49
2022-07-30T00:24:57.677Z,53.39
2022-07-30T00:27:24.536Z,54.47
2022-07-30T00:29:51.355Z,55.29
2022-07-30T00:32:18.209Z,52.69
2022-07-30T00:34:44.974Z,54.06
2022-07-30T00:37:11.749Z,56.11
2022-07-30T00:39:38.574Z,55.66
2022-07-30T00:42:05.415Z,57.02
2022-07-30T00:44:32.445Z,57.01
2022-07-30T00:46:59.661Z,56.58
2022-07-30T00:49:27.066Z,56.31
2022-07-30T00:51:53.970Z,59.40
2022-07-30T00:54:21.666Z,59.18
2022-07-30T00:56:49.105Z,57.72
2022-07-30T00:59:16.527Z,57.23
2022-07-30T01:01:43.495Z,57.11
2022-07-30T01:04:11.991Z,58.33
2022-07-30T01:06:40.394Z,57.70
2022-07-30T01:09:07.860Z,56.13
2022-07-30T01:11:38.799Z,57.65
2022-07-30T01:14:07.195Z,56.16
2022-07-30T01:16:39.906Z,56.61
2022-07-30T01:19:32.476Z,57.13
2022-07-30T01:22:11.026Z,57.30
2022-07-30T01:24:43.032Z,56.67
2022-07-30T01:27:13.151Z,54.98
2022-07-30T01:29:43.406Z,54.66
2022-07-30T01:32:12.235Z,56.27
2022-07-30T01:34:40.235Z,53.84
2022-07-30T01:37:10.686Z,53.88
2022-07-30T01:39:39.889Z,53.76
2022-07-30T01:42:09.355Z,55.02
2022-07-30T01:44:38.135Z,54.81
2022-07-30T01:47:06.433Z,54.19
2022-07-30T01:49:35.655Z,53.92
2022-07-30T01:52:04.365Z,54.52
2022-07-30T01:54:33.804Z,56.03
2022-07-30T01:57:02.785Z,53.72
2022-07-30T01:59:32.204Z,57.15
2022-07-30T02:01:59.702Z,53.09
2022-07-30T02:04:27.565Z,57.57
2022-07-30T02:07:04.400Z,57.59
2022-07-30T02:09:38.235Z,58.37
2022-07-30T02:12:25.006Z,58.68
2022-07-30T02:14:56.616Z,57.63
2022-07-30T02:17:30.192Z,61.02
2022-07-30T02:20:06.688Z,62.19
2022-07-30T02:22:39.805Z,60.33
2022-07-30T02:25:09.145Z,60.93
2022-07-30T02:27:39.035Z,61.86
2022-07-30T02:30:07.452Z,62.39
2022-07-30T02:32:37.715Z,63.39
2022-07-30T02:35:20.555Z,61.46
2022-07-30T02:37:52.794Z,63.45
2022-07-30T02:40:21.256Z,62.15
2022-07-30T02:42:52.525Z,61.77
2022-07-30T02:45:21.491Z,65.25
2022-07-30T02:47:55.198Z,64.08
2022-07-30T02:50:24.686Z,64.21
2022-07-30T02:52:53.378Z,65.27
2022-07-30T02:55:21.635Z,65.58
2022-07-30T02:57:50.535Z,65.20
2022-07-30T03:00:17.620Z,65.21
2022-07-30T03:02:46.367Z,66.94
2022-07-30T03:05:15.106Z,67.54
2022-07-30T03:07:42.935Z,66.42
2022-07-30T03:10:11.505Z,64.60
2022-07-30T03:12:40.796Z,66.44
2022-07-30T03:15:08.314Z,65.79
2022-07-30T03:17:43.773Z,66.10
2022-07-30T03:20:19.067Z,63.27
2022-07-30T03:22:51.006Z,62.83
2022-07-30T03:25:23.649Z,63.51
2022-07-30T03:27:52.285Z,62.30
2022-07-30T03:30:19.234Z,59.52
2022-07-30T03:32:47.156Z,61.34
2022-07-30T03:35:17.429Z,63.14
2022-07-30T03:37:48.995Z,63.04
2022-07-30T03:40:16.492Z,62.22
2022-07-30T03:42:45.638Z,61.30
2022-07-30T03:45:15.699Z,60.49
2022-07-30T03:47:44.765Z,61.18
2022-07-30T03:50:12.631Z,62.73
2022-07-30T03:52:41.024Z,63.75
2022-07-30T03:55:11.514Z,62.48
2022-07-30T03:57:38.716Z,61.04
2022-07-30T04:00:14.156Z,62.21
2022-07-30T04:02:44.215Z,62.71
2022-07-30T04:05:12.535Z,65.40
2022-07-30T04:07:41.341Z,66.65
2022-07-30T04:10:12.961Z,65.09
2022-07-30T04:12:39.797Z,63.74
2022-07-30T04:16:05.058Z,64.15
2022-07-30T04:17:59.112Z,65.19
2022-07-30T04:20:34.856Z,65.37
2022-07-30T04:23:02.915Z,66.36
2022-07-30T04:25:30.786Z,65.83
2022-07-30T04:28:02.902Z,65.32
2022-07-30T04:30:30.920Z,64.77
2022-07-30T04:32:57.668Z,64.35
2022-07-30T04:35:51.627Z,64.16
2022-07-30T04:38:20.130Z,64.36
2022-07-30T04:40:47.323Z,63.86
2022-07-30T04:43:14.613Z,64.20
2022-07-30T04:45:42.130Z,65.04
2022-07-30T04:48:09.214Z,65.08
2022-07-30T04:50:39.406Z,64.11
2022-07-30T04:53:06.227Z,63.27
2022-07-30T04:55:34.695Z,63.42
2022-07-30T04:58:02.190Z,63.25
2022-07-30T05:00:32.330Z,62.50
2022-07-30T05:03:02.569Z,61.65
2022-07-30T05:05:32.547Z,62.00
2022-07-30T05:08:00.201Z,61.02
2022-07-30T05:10:27.836Z,61.60
2022-07-30T05:12:54.557Z,62.01
2022-07-30T05:15:21.404Z,61.58
2022-07-30T05:17:48.896Z,60.52
2022-07-30T05:20:15.845Z,61.12
2022-07-30T05:22:42.924Z,60.32
2022-07-30T05:25:18.025Z,60.56
2022-07-30T05:27:44.747Z,60.66
2022-07-30T05:30:12.005Z,61.55
2022-07-30T05:32:39.956Z,61.59
2022-07-30T05:35:07.116Z,61.53
2022-07-30T05:37:34.796Z,62.57
2022-07-30T05:40:03.347Z,61.72
2022-07-30T05:42:30.561Z,61.24
2022-07-30T05:44:57.520Z,61.96
2022-07-30T05:47:24.363Z,61.40
2022-07-30T05:49:51.127Z,61.37
2022-07-30T05:52:17.876Z,64.35
2022-07-30T05:54:45.471Z,66.62
2022-07-30T05:57:12.375Z,70.01
2022-07-30T05:59:39.298Z,71.19
2022-07-30T06:02:07.000Z,69.10
2022-07-30T06:04:35.739Z,72.20
2022-07-30T06:07:03.444Z,73.60
2022-07-30T06:09:36.928Z,75.31
2022-07-30T06:12:04.939Z,76.40
2022-07-30T06:14:32.450Z,74.98
2022-07-30T06:16:59.622Z,74.39
2022-07-30T06:19:26.715Z,75.80
2022-07-30T06:22:05.832Z,76.49
2022-07-30T06:24:34.100Z,76.81
2022-07-30T06:27:01.657Z,80.36
2022-07-30T06:29:28.708Z,76.37
2022-07-30T06:31:55.656Z,79.17
2022-07-30T06:34:22.625Z,79.97
2022-07-30T06:36:49.716Z,80.66
2022-07-30T06:39:53.895Z,80.00
2022-07-30T06:42:04.656Z,82.45
2022-07-30T06:44:31.666Z,84.04
2022-07-30T06:46:58.986Z,89.14
2022-07-30T06:49:27.847Z,88.68
2022-07-30T06:51:54.637Z,87.36
2022-07-30T06:54:21.436Z,84.96
2022-07-30T06:56:48.236Z,83.16
2022-07-30T06:59:15.838Z,80.31
2022-07-30T07:01:42.672Z,78.86
2022-07-30T07:04:09.858Z,79.41
2022-07-30T07:06:36.586Z,77.65
2022-07-30T07:09:03.884Z,77.23
2022-07-30T07:11:31.386Z,75.78
2022-07-30T07:14:02.625Z,75.77
2022-07-30T07:16:31.304Z,74.61
2022-07-30T07:18:58.126Z,75.54
2022-07-30T07:21:25.246Z,72.52
2022-07-30T07:23:52.187Z,77.26
2022-07-30T07:26:19.245Z,75.28
2022-07-30T07:28:45.997Z,76.28
2022-07-30T07:32:05.202Z,78.00
2022-07-30T07:33:59.706Z,78.43
2022-07-30T07:36:26.987Z,78.38
2022-07-30T07:38:53.868Z,79.22
2022-07-30T07:41:20.927Z,77.04
2022-07-30T07:43:47.919Z,76.42
2022-07-30T07:46:16.841Z,78.16
2022-07-30T07:49:00.642Z,80.08
2022-07-30T07:51:47.447Z,78.94
2022-07-30T07:54:21.751Z,76.91
2022-07-30T07:56:51.707Z,77.77
2022-07-30T07:59:20.127Z,76.59
2022-07-30T08:01:47.259Z,79.35
2022-07-30T08:04:16.989Z,77.27
2022-07-30T08:06:44.025Z,78.46
2022-07-30T08:09:10.953Z,80.61
2022-07-30T08:11:37.887Z,79.40
2022-07-30T08:14:04.901Z,78.50
2022-07-30T08:16:31.790Z,79.11
2022-07-30T08:18:58.635Z,79.55
2022-07-30T08:21:25.538Z,78.83
2022-07-30T08:23:52.690Z,78.19
2022-07-30T08:26:19.649Z,76.98
2022-07-30T08:28:46.658Z,76.99
2022-07-30T08:31:13.597Z,77.62
2022-07-30T08:33:40.538Z,75.65
2022-07-30T08:36:09.546Z,77.33
2022-07-30T08:38:37.502Z,75.41
2022-07-30T08:41:04.408Z,74.87
2022-07-30T08:43:31.789Z,71.81
2022-07-30T08:46:00.714Z,73.35
2022-07-30T08:48:29.226Z,73.23
2022-07-30T08:50:56.836Z,75.70
2022-07-30T08:53:25.442Z,77.12
2022-07-30T08:55:56.844Z,76.48
2022-07-30T08:58:35.168Z,78.17
2022-07-30T09:01:02.859Z,75.97
2022-07-30T09:03:30.267Z,73.14
2022-07-30T09:05:57.469Z,74.04
2022-07-30T09:08:24.427Z,74.88
2022-07-30T09:10:53.484Z,75.28
2022-07-30T09:13:30.519Z,75.31
2022-07-30T09:15:58.049Z,75.05
2022-07-30T09:18:42.687Z,77.37
2022-07-30T09:21:21.247Z,74.86
2022-07-30T09:23:58.427Z,75.73
2022-07-30T09:26:27.166Z,75.92
2022-07-30T09:28:54.127Z,75.55
2022-07-30T09:31:22.898Z,75.01
2022-07-30T09:33:49.867Z,75.98
2022-07-30T09:36:18.397Z,74.50
2022-07-30T09:38:51.776Z,74.17
2022-07-30T09:41:38.731Z,73.87
2022-07-30T09:44:06.980Z,73.29
2022-07-30T09:46:47.903Z,74.24
2022-07-30T09:49:18.904Z,74.86
2022-07-30T09:51:55.755Z,73.86
2022-07-30T09:54:52.612Z,75.76
2022-07-30T09:57:25.555Z,75.20
2022-07-30T09:59:54.137Z,73.65
2022-07-30T10:02:29.717Z,74.78
2022-07-30T10:05:15.056Z,72.90
2022-07-30T10:07:53.476Z,71.57
2022-07-30T10:10:25.627Z,71.15
2022-07-30T10:12:59.227Z,70.91
2022-07-30T10:15:34.566Z,71.26
2022-07-30T10:18:02.976Z,72.08
2022-07-30T10:20:34.962Z,71.84
2022-07-30T10:23:08.037Z,73.59
2022-07-30T10:25:49.024Z,72.89
2022-07-30T10:28:18.074Z,72.89
2022-07-30T10:30:45.496Z,71.06
2022-07-30T10:33:34.602Z,70.07
2022-07-30T10:35:59.897Z,70.07
2022-07-30T10:38:33.549Z,70.56
2022-07-30T10:41:54.143Z,69.65
2022-07-30T10:44:58.794Z,70.25
2022-07-30T10:47:33.347Z,69.44
2022-07-30T10:50:10.643Z,71.20
2022-07-30T10:52:51.306Z,70.80
2022-07-30T10:55:36.813Z,69.84
2022-07-30T10:58:11.225Z,69.90
2022-07-30T11:00:53.784Z,68.27
2022-07-30T11:03:40.465Z,68.94
2022-07-30T11:06:24.388Z,67.15
2022-07-30T11:08:52.039Z,66.96
2022-07-30T11:11:59.303Z,68.35
2022-07-30T11:14:11.214Z,67.80
2022-07-30T11:16:39.601Z,66.65
2022-07-30T11:19:55.560Z,65.66
2022-07-30T11:22:36.856Z,64.76
2022-07-30T11:25:12.708Z,64.23
2022-07-30T11:27:48.974Z,64.81
2022-07-30T11:30:17.061Z,64.41
2022-07-30T11:33:18.617Z,65.85
2022-07-30T11:36:06.139Z,64.38
2022-07-30T11:38:52.496Z,63.61
2022-07-30T11:41:19.697Z,63.26
2022-07-30T11:43:46.555Z,62.85
2022-07-30T11:46:29.189Z,61.59
2022-07-30T11:49:08.723Z,61.10
2022-07-30T11:51:43.834Z,61.92
2022-07-30T11:54:12.266Z,60.41
2022-07-30T11:56:49.239Z,58.95
2022-07-30T11:59:16.249Z,58.63
2022-07-30T12:01:43.814Z,60.43
2022-07-30T12:04:10.828Z,60.92
2022-07-30T12:06:47.373Z,59.17
2022-07-30T12:09:27.512Z,57.24
2022-07-30T12:11:55.878Z,57.70
2022-07-30T12:14:22.784Z,58.27
2022-07-30T12:16:54.707Z,58.22
2022-07-30T12:19:21.839Z,57.99
2022-07-30T12:21:53.071Z,57.25
2022-07-30T12:24:26.498Z,56.47
2022-07-30T12:27:04.358Z,54.38
2022-07-30T12:29:35.422Z,53.88
2022-07-30T12:32:02.443Z,51.68
2022-07-30T12:34:29.534Z,52.22
2022-07-30T12:37:08.268Z,50.80
2022-07-30T12:39:35.128Z,51.67
2022-07-30T12:42:03.581Z,50.25
2022-07-30T12:44:37.927Z,49.24
2022-07-30T12:47:07.244Z,51.43
2022-07-30T12:49:37.827Z,51.04
2022-07-30T12:52:28.636Z,51.91
2022-07-30T12:55:11.341Z,49.42
2022-07-30T12:58:07.601Z,49.05
2022-07-30T13:00:44.346Z,49.43
2022-07-30T13:03:27.794Z,49.62
2022-07-30T13:05:56.574Z,48.94
2022-07-30T13:08:50.269Z,48.71
2022-07-30T13:11:18.224Z,49.32
2022-07-30T13:13:45.847Z,48.66
2022-07-30T13:16:13.426Z,48.51
2022-07-30T13:18:40.835Z,45.65
2022-07-30T13:21:09.420Z,47.94
2022-07-30T13:23:40.614Z,48.29
2022-07-30T13:26:08.837Z,47.46
2022-07-30T13:28:35.987Z,47.97
2022-07-30T13:31:03.216Z,47.18
2022-07-30T13:33:30.487Z,47.53
2022-07-30T13:35:57.457Z,47.47
2022-07-30T13:38:24.508Z,47.25
2022-07-30T13:40:51.952Z,47.27
2022-07-30T13:43:19.696Z,47.25
2022-07-30T13:45:47.315Z,47.56
2022-07-30T13:48:14.498Z,48.79
2022-07-30T13:50:42.221Z,47.29
2022-07-30T13:53:10.423Z,46.52
2022-07-30T13:55:38.327Z,48.68
2022-07-30T13:58:07.077Z,45.69
2022-07-30T14:00:37.100Z,46.39
2022-07-30T14:03:07.742Z,46.88
2022-07-30T14:05:41.990Z,46.24
2022-07-30T14:08:12.082Z,46.63
2022-07-30T14:10:40.515Z,47.23
2022-07-30T14:13:09.837Z,45.70
2022-07-30T14:15:37.136Z,46.70
2022-07-30T14:18:06.100Z,44.45
2022-07-30T14:20:33.021Z,43.81
2022-07-30T14:23:00.073Z,44.96
2022-07-30T14:25:27.356Z,43.50
2022-07-30T14:27:54.276Z,43.73
2022-07-30T14:30:21.545Z,44.03
2022-07-30T14:32:48.475Z,45.70
2022-07-30T14:35:15.430Z,46.41
2022-07-30T14:37:42.396Z,45.70
2022-07-30T14:40:11.847Z,46.08
2022-07-30T14:42:40.096Z,44.42
2022-07-30T14:45:10.693Z,43.76
2022-07-30T14:47:38.275Z,44.70
2022-07-30T14:50:05.908Z,42.93
2022-07-30T14:52:36.986Z,44.42
2022-07-30T14:55:07.450Z,44.85
2022-07-30T14:57:34.897Z,42.00
2022-07-30T15:00:02.631Z,42.11
2022-07-30T15:02:29.660Z,42.81
2022-07-30T15:04:56.467Z,42.82
2022-07-30T15:07:23.341Z,43.01
2022-07-30T15:09:50.264Z,42.29
2022-07-30T15:12:26.561Z,41.67
2022-07-30T15:14:54.307Z,42.12
2022-07-30T15:17:21.149Z,42.70
2022-07-30T15:19:50.604Z,43.17
2022-07-30T15:22:20.110Z,41.70
2022-07-30T15:24:46.994Z,42.61
2022-07-30T15:27:13.926Z,42.58
2022-07-30T15:29:40.937Z,43.85
2022-07-30T15:32:08.080Z,44.40
2022-07-30T15:34:35.205Z,43.30
2022-07-30T15:37:03.676Z,44.94
2022-07-30T15:39:33.172Z,43.97
2022-07-30T15:42:04.186Z,43.54
2022-07-30T15:44:31.635Z,44.06
2022-07-30T15:46:59.258Z,45.64
2022-07-30T15:49:26.562Z,44.56
2022-07-30T15:51:53.815Z,44.66
2022-07-30T15:54:25.451Z,45.89
2022-07-30T15:56:54.141Z,44.50
2022-07-30T15:59:28.407Z,44.83
2022-07-30T16:01:55.283Z,43.54
2022-07-30T16:04:31.887Z,45.46
2022-07-30T16:07:00.703Z,46.40
2022-07-30T16:09:27.975Z,45.74
2022-07-30T16:11:54.752Z,44.58
2022-07-30T16:14:21.775Z,44.75
2022-07-30T16:16:48.921Z,43.82
2022-07-30T16:19:15.746Z,43.62
2022-07-30T16:21:42.635Z,42.85
2022-07-30T16:24:09.447Z,42.81
2022-07-30T16:26:37.365Z,43.03
2022-07-30T16:29:05.015Z,41.71
2022-07-30T16:31:31.995Z,42.80
2022-07-30T16:33:58.839Z,42.62
2022-07-30T16:36:25.674Z,43.62
2022-07-30T16:38:52.605Z,42.24
2022-07-30T16:41:19.392Z,42.92
2022-07-30T16:43:46.305Z,42.92
2022-07-30T16:46:13.657Z,41.72
2022-07-30T16:48:40.598Z,41.41
2022-07-30T16:51:07.714Z,41.41
2022-07-30T16:53:35.896Z,41.13
2022-07-30T16:56:02.866Z,41.08
2022-07-30T16:58:30.893Z,40.58
2022-07-30T17:00:58.538Z,40.70
2022-07-30T17:03:25.802Z,40.83
2022-07-30T17:05:53.783Z,40.25
2022-07-30T17:08:25.063Z,40.03
2022-07-30T17:10:52.974Z,40.22
2022-07-30T17:13:20.490Z,40.78
2022-07-30T17:15:47.399Z,40.98
2022-07-30T17:18:14.465Z,40.43
2022-07-30T17:20:41.392Z,40.78
2022-07-30T17:23:08.256Z,40.50
2022-07-30T17:25:35.256Z,40.66
2022-07-30T17:28:02.648Z,41.41
2022-07-30T17:30:30.122Z,40.65
2022-07-30T17:32:57.115Z,40.78
2022-07-30T17:35:24.978Z,40.64
2022-07-30T17:37:52.416Z,40.29
2022-07-30T17:40:28.342Z,40.09
2022-07-30T17:43:03.810Z,39.18
2022-07-30T17:45:32.228Z,40.46
2022-07-30T17:47:59.135Z,40.01
2022-07-30T17:50:25.985Z,40.32
2022-07-30T17:52:52.897Z,39.78
2022-07-30T17:55:19.641Z,41.01
2022-07-30T17:57:46.514Z,40.52
2022-07-30T18:00:13.792Z,40.87
2022-07-30T18:02:40.592Z,40.92
2022-07-30T18:05:08.706Z,41.42
2022-07-30T18:07:35.579Z,40.86
2022-07-30T18:10:02.397Z,41.04
2022-07-30T18:12:29.279Z,41.00
2022-07-30T18:14:56.237Z,41.42
2022-07-30T18:17:23.313Z,41.52
2022-07-30T18:19:50.568Z,41.60
2022-07-30T18:22:22.190Z,41.09
2022-07-30T18:24:57.630Z,41.05
2022-07-30T18:27:24.476Z,41.40
2022-07-30T18:29:51.351Z,42.53
2022-07-30T18:32:18.353Z,42.36
2022-07-30T18:34:45.206Z,42.46
2022-07-30T18:37:12.006Z,42.61
2022-07-30T18:39:38.869Z,42.85
2022-07-30T18:42:06.438Z,42.73
2022-07-30T18:44:34.004Z,43.83
2022-07-30T18:47:00.947Z,44.40
2022-07-30T18:49:36.714Z,44.85
2022-07-30T18:52:06.666Z,44.68
2022-07-30T18:54:34.609Z,44.40
2022-07-30T18:57:01.496Z,44.71
2022-07-30T18:59:29.098Z,44.65
2022-07-30T19:01:55.997Z,44.93
2022-07-30T19:04:22.835Z,44.88
2022-07-30T19:06:49.874Z,44.42
2022-07-30T19:09:18.024Z,44.16
2022-07-30T19:11:48.180Z,45.38
2022-07-30T19:14:15.528Z,46.99
2022-07-30T19:16:44.328Z,47.47
2022-07-30T19:19:15.018Z,47.62
2022-07-30T19:21:42.176Z,48.23
2022-07-30T19:24:09.917Z,48.05
2022-07-30T19:26:39.098Z,48.08
2022-07-30T19:29:10.046Z,48.62
2022-07-30T19:31:37.008Z,49.11
2022-07-30T19:34:04.546Z,49.02
2022-07-30T19:36:31.626Z,49.22
2022-07-30T19:38:59.046Z,49.60
2022-07-30T19:41:30.241Z,50.13
2022-07-30T19:43:57.937Z,50.85
2022-07-30T19:46:25.426Z,50.53
2022-07-30T19:48:52.373Z,50.54
2022-07-30T19:51:20.692Z,50.39
2022-07-30T19:53:51.926Z,49.87
2022-07-30T19:56:19.564Z,50.66
2022-07-30T19:58:46.601Z,50.70
2022-07-30T20:01:15.850Z,50.47
2022-07-30T20:03:45.842Z,52.59
2022-07-30T20:06:15.134Z,51.90
2022-07-30T20:08:44.715Z,51.93
2022-07-30T20:11:16.392Z,52.68
2022-07-30T20:13:59.727Z,52.11
2022-07-30T20:16:26.645Z,53.47
2022-07-30T20:18:54.760Z,53.56
2022-07-30T20:21:21.825Z,53.78
2022-07-30T20:24:08.898Z,53.47
2022-07-30T20:26:37.426Z,53.89
2022-07-30T20:29:09.201Z,54.13
2022-07-30T20:31:45.999Z,53.92
2022-07-30T20:34:16.279Z,54.02
2022-07-30T20:36:45.000Z,53.64
2022-07-30T20:39:18.546Z,52.92
2022-07-30T20:41:46.890Z,54.05
2022-07-30T20:44:23.348Z,53.47
2022-07-30T20:46:52.828Z,56.06
2022-07-30T20:49:24.104Z,56.48
2022-07-30T20:51:55.589Z,56.83
2022-07-30T20:54:22.521Z,57.75
2022-07-30T20:56:51.027Z,58.17
2022-07-30T20:59:18.624Z,57.19
2022-07-30T21:01:51.015Z,59.91
2022-07-30T21:04:23.840Z,60.68
2022-07-30T21:06:52.705Z,60.25
2022-07-30T21:09:20.471Z,61.60
2022-07-30T21:11:50.303Z,61.08
2022-07-30T21:14:18.335Z,60.30
2022-07-30T21:16:47.268Z,61.93
2022-07-30T21:19:16.615Z,61.17
2022-07-30T21:21:48.265Z,60.38
2022-07-30T21:24:19.460Z,59.48
2022-07-30T21:26:51.427Z,60.25
2022-07-30T21:29:19.138Z,59.35
2022-07-30T21:32:11.427Z,60.88
2022-07-30T21:34:40.185Z,62.39
2022-07-30T21:37:07.565Z,61.92
2022-07-30T21:39:39.988Z,62.79
2022-07-30T21:42:10.518Z,63.97
2022-07-30T21:44:38.480Z,64.97
2022-07-30T21:47:10.188Z,63.26
2022-07-30T21:49:38.611Z,63.44
2022-07-30T21:52:06.901Z,63.83
2022-07-30T21:54:45.603Z,63.79
2022-07-30T21:57:23.312Z,63.01
2022-07-30T21:59:53.897Z,62.90
2022-07-30T22:02:22.276Z,62.88
2022-07-30T22:04:51.343Z,62.03
2022-07-30T22:07:18.315Z,62.45
2022-07-30T22:09:45.350Z,62.18
2022-07-30T22:14:59.455Z,62.06
2022-07-30T22:17:36.741Z,61.65
2022-07-30T22:20:14.987Z,61.19
2022-07-30T22:22:42.033Z,61.69
2022-07-30T22:25:10.891Z,61.10
2022-07-30T22:27:56.388Z,61.00
2022-07-30T22:30:29.761Z,60.93
2022-07-30T22:33:20.026Z,60.35
2022-07-30T22:35:49.701Z,61.02
2022-07-30T22:38:19.550Z,60.67
2022-07-30T22:40:47.034Z,60.09
2022-07-30T22:43:16.336Z,60.07
2022-07-30T22:45:48.774Z,61.33
2022-07-30T22:48:17.504Z,61.25
2022-07-30T22:50:46.327Z,60.65
2022-07-30T22:53:56.234Z,60.43
2022-07-30T22:56:02.863Z,60.39
2022-07-30T22:58:30.695Z,60.24
2022-07-30T23:00:57.502Z,62.19
2022-07-30T23:03:24.431Z,61.31
2022-07-30T23:05:55.233Z,61.83
2022-07-30T23:08:29.842Z,62.40
2022-07-30T23:10:57.395Z,62.83
2022-07-30T23:12:28.380Z,62.02
2022-07-30T23:13:24.116Z,61.87
2022-07-30T23:15:50.941Z,61.65
2022-07-30T23:18:17.774Z,61.51
2022-07-30T23:20:44.614Z,61.29
2022-07-30T23:23:11.743Z,65.38
2022-07-30T23:25:39.446Z,64.64
2022-07-30T23:28:06.723Z,64.00
2022-07-30T23:30:34.475Z,63.27
2022-07-30T23:33:01.820Z,62.59
2022-07-30T23:35:28.734Z,61.84
2022-07-30T23:37:55.536Z,61.44
2022-07-30T23:40:23.553Z,61.34
2022-07-30T23:42:51.110Z,61.86
2022-07-30T23:45:18.353Z,64.26
2022-07-30T23:47:56.596Z,64.82
2022-07-30T23:50:31.723Z,64.77
2022-07-30T23:52:58.514Z,65.00
2022-07-30T23:55:25.354Z,64.60
2022-07-30T23:57:52.132Z,64.76
